sensor_id;sensor_type;location;lat;lon;timestamp;temperature;humidity
6822;DHT22;3449;48.728;8.968;2022-08-21T00:00:06;15.20;99.90
6822;DHT22;3449;48.728;8.968;2022-08-21T00:02:34;15.20;99.90
6822;DHT22;3449;48.728;8.968;2022-08-21T00:05:03;15.20;99.90
6822;DHT22;3449;48.728;8.968;2022-08-21T00:07:30;15.10;99.90
6822;DHT22;3449;48.728;8.968;2022-08-21T00:09:58;15.10;99.90
6822;DHT22;3449;48.728;8.968;2022-08-21T00:12:25;15.10;99.90
6822;DHT22;3449;48.728;8.968;2022-08-21T00:14:52;15.10;99.90
6822;DHT22;3449;48.728;8.968;2022-08-21T00:17:19;15.10;99.90
6822;DHT22;3449;48.728;8.968;2022-08-21T00:19:48;15.10;99.90
6822;DHT22;3449;48.728;8.968;2022-08-21T00:22:16;15.10;99.90
6822;DHT22;3449;48.728;8.968;2022-08-21T00:24:43;15.10;99.90
6822;DHT22;3449;48.728;8.968;2022-08-21T00:27:10;15.10;99.90
6822;DHT22;3449;48.728;8.968;2022-08-21T00:29:37;15.10;99.90
6822;DHT22;3449;48.728;8.968;2022-08-21T00:32:04;15.00;99.90
6822;DHT22;3449;48.728;8.968;2022-08-21T00:34:32;15.00;99.90
6822;DHT22;3449;48.728;8.968;2022-08-21T00:36:58;15.00;99.90
6822;DHT22;3449;48.728;8.968;2022-08-21T00:39:27;15.00;99.90
6822;DHT22;3449;48.728;8.968;2022-08-21T00:41:54;14.90;99.90
6822;DHT22;3449;48.728;8.968;2022-08-21T00:44:21;14.90;99.90
6822;DHT22;3449;48.728;8.968;2022-08-21T00:46:48;14.80;99.90
6822;DHT22;3449;48.728;8.968;2022-08-21T00:49:15;14.80;99.90
6822;DHT22;3449;48.728;8.968;2022-08-21T00:51:47;14.70;99.90
6822;DHT22;3449;48.728;8.968;2022-08-21T00:54:15;14.70;99.90
6822;DHT22;3449;48.728;8.968;2022-08-21T00:56:43;14.60;99.90
6822;DHT22;3449;48.728;8.968;2022-08-21T00:59:10;14.60;99.90
6822;DHT22;3449;48.728;8.968;2022-08-21T01:01:38;14.50;99.90
6822;DHT22;3449;48.728;8.968;2022-08-21T01:04:05;14.50;99.90
6822;DHT22;3449;48.728;8.968;2022-08-21T01:06:32;14.50;99.90
6822;DHT22;3449;48.728;8.968;2022-08-21T01:08:59;14.40;99.90
6822;DHT22;3449;48.728;8.968;2022-08-21T01:11:26;14.40;99.90
6822;DHT22;3449;48.728;8.968;2022-08-21T01:13:54;14.40;99.90
6822;DHT22;3449;48.728;8.968;2022-08-21T01:16:22;14.40;99.90
6822;DHT22;3449;48.728;8.968;2022-08-21T01:18:50;14.30;99.90
6822;DHT22;3449;48.728;8.968;2022-08-21T01:21:20;14.30;99.90
6822;DHT22;3449;48.728;8.968;2022-08-21T01:23:50;14.30;99.90
6822;DHT22;3449;48.728;8.968;2022-08-21T01:26:20;14.20;99.90
6822;DHT22;3449;48.728;8.968;2022-08-21T01:28:51;14.20;99.90
6822;DHT22;3449;48.728;8.968;2022-08-21T01:31:23;14.20;99.90
6822;DHT22;3449;48.728;8.968;2022-08-21T01:33:50;14.20;99.90
6822;DHT22;3449;48.728;8.968;2022-08-21T01:36:19;14.20;99.90
6822;DHT22;3449;48.728;8.968;2022-08-21T01:38:47;14.10;99.90
6822;DHT22;3449;48.728;8.968;2022-08-21T01:41:15;14.00;99.90
6822;DHT22;3449;48.728;8.968;2022-08-21T01:43:43;14.00;99.90
6822;DHT22;3449;48.728;8.968;2022-08-21T01:46:11;14.00;99.90
6822;DHT22;3449;48.728;8.968;2022-08-21T01:48:39;13.90;99.90
6822;DHT22;3449;48.728;8.968;2022-08-21T01:51:07;13.90;99.90
6822;DHT22;3449;48.728;8.968;2022-08-21T01:53:36;13.80;99.90
6822;DHT22;3449;48.728;8.968;2022-08-21T01:56:05;13.80;99.90
6822;DHT22;3449;48.728;8.968;2022-08-21T01:58:33;13.80;99.90
6822;DHT22;3449;48.728;8.968;2022-08-21T02:01:00;13.70;99.90
6822;DHT22;3449;48.728;8.968;2022-08-21T02:03:27;13.70;99.90
6822;DHT22;3449;48.728;8.968;2022-08-21T02:05:54;13.60;99.90
6822;DHT22;3449;48.728;8.968;2022-08-21T02:08:22;13.60;99.90
6822;DHT22;3449;48.728;8.968;2022-08-21T02:10:51;13.50;99.90
6822;DHT22;3449;48.728;8.968;2022-08-21T02:13:18;13.60;99.90
6822;DHT22;3449;48.728;8.968;2022-08-21T02:15:45;13.60;99.90
6822;DHT22;3449;48.728;8.968;2022-08-21T02:18:13;13.60;99.90
6822;DHT22;3449;48.728;8.968;2022-08-21T02:20:42;13.50;99.90
6822;DHT22;3449;48.728;8.968;2022-08-21T02:23:10;13.60;99.90
6822;DHT22;3449;48.728;8.968;2022-08-21T02:25:38;13.60;99.90
6822;DHT22;3449;48.728;8.968;2022-08-21T02:28:08;13.60;99.90
6822;DHT22;3449;48.728;8.968;2022-08-21T02:30:39;13.60;99.90
6822;DHT22;3449;48.728;8.968;2022-08-21T02:33:08;13.60;99.90
6822;DHT22;3449;48.728;8.968;2022-08-21T02:35:35;13.60;99.90
6822;DHT22;3449;48.728;8.968;2022-08-21T02:38:05;13.60;99.90
6822;DHT22;3449;48.728;8.968;2022-08-21T02:40:37;13.50;99.90
6822;DHT22;3449;48.728;8.968;2022-08-21T02:43:06;13.50;99.90
6822;DHT22;3449;48.728;8.968;2022-08-21T02:45:35;13.50;99.90
6822;DHT22;3449;48.728;8.968;2022-08-21T02:48:04;13.40;99.90
6822;DHT22;3449;48.728;8.968;2022-08-21T02:50:34;13.40;99.90
6822;DHT22;3449;48.728;8.968;2022-08-21T02:53:01;13.40;99.90
6822;DHT22;3449;48.728;8.968;2022-08-21T02:55:30;13.30;99.90
6822;DHT22;3449;48.728;8.968;2022-08-21T02:57:58;13.30;99.90
6822;DHT22;3449;48.728;8.968;2022-08-21T03:00:28;13.20;99.90
6822;DHT22;3449;48.728;8.968;2022-08-21T03:02:58;13.20;99.90
6822;DHT22;3449;48.728;8.968;2022-08-21T03:05:27;13.10;99.90
6822;DHT22;3449;48.728;8.968;2022-08-21T03:07:57;13.10;99.90
6822;DHT22;3449;48.728;8.968;2022-08-21T03:10:24;13.00;99.90
6822;DHT22;3449;48.728;8.968;2022-08-21T03:12:51;13.00;99.90
6822;DHT22;3449;48.728;8.968;2022-08-21T03:15:21;13.00;99.90
6822;DHT22;3449;48.728;8.968;2022-08-21T03:17:51;12.90;99.90
6822;DHT22;3449;48.728;8.968;2022-08-21T03:20:22;12.80;99.90
6822;DHT22;3449;48.728;8.968;2022-08-21T03:22:50;12.70;99.90
6822;DHT22;3449;48.728;8.968;2022-08-21T03:25:17;12.70;99.90
6822;DHT22;3449;48.728;8.968;2022-08-21T03:27:45;12.70;99.90
6822;DHT22;3449;48.728;8.968;2022-08-21T03:30:13;12.70;99.90
6822;DHT22;3449;48.728;8.968;2022-08-21T03:32:40;12.60;99.90
6822;DHT22;3449;48.728;8.968;2022-08-21T03:35:09;12.60;99.90
6822;DHT22;3449;48.728;8.968;2022-08-21T03:37:36;12.60;99.90
6822;DHT22;3449;48.728;8.968;2022-08-21T03:40:03;12.60;99.90
6822;DHT22;3449;48.728;8.968;2022-08-21T03:42:30;12.60;99.90
6822;DHT22;3449;48.728;8.968;2022-08-21T03:44:57;12.60;99.90
6822;DHT22;3449;48.728;8.968;2022-08-21T03:47:24;12.60;99.90
6822;DHT22;3449;48.728;8.968;2022-08-21T03:49:51;12.60;99.90
6822;DHT22;3449;48.728;8.968;2022-08-21T03:52:19;12.50;99.90
6822;DHT22;3449;48.728;8.968;2022-08-21T03:54:46;12.50;99.90
6822;DHT22;3449;48.728;8.968;2022-08-21T03:57:13;12.50;99.90
6822;DHT22;3449;48.728;8.968;2022-08-21T03:59:40;12.40;99.90
6822;DHT22;3449;48.728;8.968;2022-08-21T04:02:08;12.40;99.90
6822;DHT22;3449;48.728;8.968;2022-08-21T04:04:36;12.40;99.90
6822;DHT22;3449;48.728;8.968;2022-08-21T04:07:03;12.40;99.90
6822;DHT22;3449;48.728;8.968;2022-08-21T04:09:32;12.40;99.90
6822;DHT22;3449;48.728;8.968;2022-08-21T04:11:59;12.40;99.90
6822;DHT22;3449;48.728;8.968;2022-08-21T04:14:26;12.50;99.90
6822;DHT22;3449;48.728;8.968;2022-08-21T04:16:53;12.30;99.90
6822;DHT22;3449;48.728;8.968;2022-08-21T04:19:20;12.30;99.90
6822;DHT22;3449;48.728;8.968;2022-08-21T04:21:47;12.30;99.90
6822;DHT22;3449;48.728;8.968;2022-08-21T04:24:15;12.30;99.90
6822;DHT22;3449;48.728;8.968;2022-08-21T04:26:43;12.30;99.90
6822;DHT22;3449;48.728;8.968;2022-08-21T04:29:10;12.30;99.90
6822;DHT22;3449;48.728;8.968;2022-08-21T04:31:37;12.30;99.90
6822;DHT22;3449;48.728;8.968;2022-08-21T04:34:04;12.30;99.90
6822;DHT22;3449;48.728;8.968;2022-08-21T04:36:31;12.30;99.90
6822;DHT22;3449;48.728;8.968;2022-08-21T04:38:58;12.20;99.90
6822;DHT22;3449;48.728;8.968;2022-08-21T04:41:25;12.30;99.90
6822;DHT22;3449;48.728;8.968;2022-08-21T04:43:54;12.30;99.90
6822;DHT22;3449;48.728;8.968;2022-08-21T04:46:21;12.30;99.90
6822;DHT22;3449;48.728;8.968;2022-08-21T04:48:48;12.30;99.90
6822;DHT22;3449;48.728;8.968;2022-08-21T04:51:18;12.40;99.90
6822;DHT22;3449;48.728;8.968;2022-08-21T04:53:50;12.40;99.90
6822;DHT22;3449;48.728;8.968;2022-08-21T04:56:22;12.40;99.90
6822;DHT22;3449;48.728;8.968;2022-08-21T04:58:50;12.50;99.90
6822;DHT22;3449;48.728;8.968;2022-08-21T05:01:22;12.50;99.90
6822;DHT22;3449;48.728;8.968;2022-08-21T05:03:52;12.50;99.90
6822;DHT22;3449;48.728;8.968;2022-08-21T05:06:21;12.60;99.90
6822;DHT22;3449;48.728;8.968;2022-08-21T05:08:53;12.60;99.90
6822;DHT22;3449;48.728;8.968;2022-08-21T05:11:22;12.60;99.90
6822;DHT22;3449;48.728;8.968;2022-08-21T05:13:49;12.60;99.90
6822;DHT22;3449;48.728;8.968;2022-08-21T05:16:16;12.60;99.90
6822;DHT22;3449;48.728;8.968;2022-08-21T05:18:44;12.60;99.90
6822;DHT22;3449;48.728;8.968;2022-08-21T05:21:11;12.70;99.90
6822;DHT22;3449;48.728;8.968;2022-08-21T05:23:38;12.70;99.90
6822;DHT22;3449;48.728;8.968;2022-08-21T05:26:05;12.80;99.90
6822;DHT22;3449;48.728;8.968;2022-08-21T05:28:32;12.90;99.90
6822;DHT22;3449;48.728;8.968;2022-08-21T05:30:59;12.90;99.90
6822;DHT22;3449;48.728;8.968;2022-08-21T05:33:26;13.00;99.90
6822;DHT22;3449;48.728;8.968;2022-08-21T05:35:54;13.10;99.90
6822;DHT22;3449;48.728;8.968;2022-08-21T05:38:22;13.10;99.90
6822;DHT22;3449;48.728;8.968;2022-08-21T05:40:49;13.20;99.90
6822;DHT22;3449;48.728;8.968;2022-08-21T05:43:16;13.20;99.90
6822;DHT22;3449;48.728;8.968;2022-08-21T05:45:43;13.30;99.90
6822;DHT22;3449;48.728;8.968;2022-08-21T05:48:13;13.30;99.90
6822;DHT22;3449;48.728;8.968;2022-08-21T05:50:41;13.40;99.90
6822;DHT22;3449;48.728;8.968;2022-08-21T05:53:10;13.50;99.90
6822;DHT22;3449;48.728;8.968;2022-08-21T05:55:38;13.50;99.90
6822;DHT22;3449;48.728;8.968;2022-08-21T05:58:06;13.60;99.90
6822;DHT22;3449;48.728;8.968;2022-08-21T06:00:33;13.80;99.90
6822;DHT22;3449;48.728;8.968;2022-08-21T06:03:00;13.90;99.90
6822;DHT22;3449;48.728;8.968;2022-08-21T06:05:27;14.10;99.90
6822;DHT22;3449;48.728;8.968;2022-08-21T06:07:54;14.30;99.90
6822;DHT22;3449;48.728;8.968;2022-08-21T06:10:22;14.40;99.90
6822;DHT22;3449;48.728;8.968;2022-08-21T06:12:53;14.50;99.90
6822;DHT22;3449;48.728;8.968;2022-08-21T06:15:20;14.70;99.90
6822;DHT22;3449;48.728;8.968;2022-08-21T06:17:47;14.90;99.90
6822;DHT22;3449;48.728;8.968;2022-08-21T06:20:14;15.00;99.90
6822;DHT22;3449;48.728;8.968;2022-08-21T06:22:41;15.20;99.90
6822;DHT22;3449;48.728;8.968;2022-08-21T06:25:08;15.30;99.90
6822;DHT22;3449;48.728;8.968;2022-08-21T06:27:37;15.40;99.90
6822;DHT22;3449;48.728;8.968;2022-08-21T06:30:06;15.60;99.90
6822;DHT22;3449;48.728;8.968;2022-08-21T06:32:34;15.80;99.90
6822;DHT22;3449;48.728;8.968;2022-08-21T06:35:01;16.00;99.90
6822;DHT22;3449;48.728;8.968;2022-08-21T06:37:28;16.10;99.90
6822;DHT22;3449;48.728;8.968;2022-08-21T06:39:55;16.40;99.90
6822;DHT22;3449;48.728;8.968;2022-08-21T06:42:22;16.60;99.90
6822;DHT22;3449;48.728;8.968;2022-08-21T06:44:50;16.70;99.90
6822;DHT22;3449;48.728;8.968;2022-08-21T06:47:17;16.90;99.90
6822;DHT22;3449;48.728;8.968;2022-08-21T06:49:44;17.10;99.90
6822;DHT22;3449;48.728;8.968;2022-08-21T06:52:12;17.10;99.90
6822;DHT22;3449;48.728;8.968;2022-08-21T06:54:40;17.30;99.90
6822;DHT22;3449;48.728;8.968;2022-08-21T06:57:07;17.50;99.90
6822;DHT22;3449;48.728;8.968;2022-08-21T06:59:34;17.70;99.90
6822;DHT22;3449;48.728;8.968;2022-08-21T07:02:03;17.80;99.90
6822;DHT22;3449;48.728;8.968;2022-08-21T07:04:30;18.10;99.90
6822;DHT22;3449;48.728;8.968;2022-08-21T07:06:57;18.30;99.90
6822;DHT22;3449;48.728;8.968;2022-08-21T07:09:24;18.60;99.90
6822;DHT22;3449;48.728;8.968;2022-08-21T07:11:54;18.80;99.90
6822;DHT22;3449;48.728;8.968;2022-08-21T07:14:21;18.90;99.90
6822;DHT22;3449;48.728;8.968;2022-08-21T07:16:48;19.00;99.90
6822;DHT22;3449;48.728;8.968;2022-08-21T07:19:18;19.30;99.90
6822;DHT22;3449;48.728;8.968;2022-08-21T07:21:45;19.40;99.90
6822;DHT22;3449;48.728;8.968;2022-08-21T07:24:12;19.50;99.90
6822;DHT22;3449;48.728;8.968;2022-08-21T07:26:39;19.80;99.90
6822;DHT22;3449;48.728;8.968;2022-08-21T07:29:06;19.90;99.90
6822;DHT22;3449;48.728;8.968;2022-08-21T07:31:33;20.10;99.90
6822;DHT22;3449;48.728;8.968;2022-08-21T07:34:00;20.40;99.90
6822;DHT22;3449;48.728;8.968;2022-08-21T07:36:28;20.40;99.90
6822;DHT22;3449;48.728;8.968;2022-08-21T07:38:55;20.60;99.90
6822;DHT22;3449;48.728;8.968;2022-08-21T07:41:23;20.60;99.90
6822;DHT22;3449;48.728;8.968;2022-08-21T07:43:50;20.60;99.90
6822;DHT22;3449;48.728;8.968;2022-08-21T07:46:17;20.60;99.90
6822;DHT22;3449;48.728;8.968;2022-08-21T07:48:45;20.70;99.90
6822;DHT22;3449;48.728;8.968;2022-08-21T07:51:13;21.10;99.90
6822;DHT22;3449;48.728;8.968;2022-08-21T07:53:47;21.10;99.90
6822;DHT22;3449;48.728;8.968;2022-08-21T07:56:15;21.20;99.90
6822;DHT22;3449;48.728;8.968;2022-08-21T07:58:42;21.50;99.90
6822;DHT22;3449;48.728;8.968;2022-08-21T08:01:09;21.80;99.90
6822;DHT22;3449;48.728;8.968;2022-08-21T08:03:37;21.90;99.90
6822;DHT22;3449;48.728;8.968;2022-08-21T08:06:04;22.00;99.90
6822;DHT22;3449;48.728;8.968;2022-08-21T08:08:32;22.30;99.90
6822;DHT22;3449;48.728;8.968;2022-08-21T08:11:01;22.50;99.90
6822;DHT22;3449;48.728;8.968;2022-08-21T08:13:28;22.60;99.90
6822;DHT22;3449;48.728;8.968;2022-08-21T08:15:55;22.90;99.90
6822;DHT22;3449;48.728;8.968;2022-08-21T08:18:22;23.20;99.90
6822;DHT22;3449;48.728;8.968;2022-08-21T08:20:49;23.60;99.90
6822;DHT22;3449;48.728;8.968;2022-08-21T08:23:16;23.70;99.90
6822;DHT22;3449;48.728;8.968;2022-08-21T08:25:43;24.00;99.90
6822;DHT22;3449;48.728;8.968;2022-08-21T08:28:11;24.30;99.90
6822;DHT22;3449;48.728;8.968;2022-08-21T08:30:38;24.40;99.90
6822;DHT22;3449;48.728;8.968;2022-08-21T08:33:05;24.60;99.90
6822;DHT22;3449;48.728;8.968;2022-08-21T08:35:33;24.60;99.90
6822;DHT22;3449;48.728;8.968;2022-08-21T08:38:00;24.80;99.90
6822;DHT22;3449;48.728;8.968;2022-08-21T08:40:33;25.00;99.90
6822;DHT22;3449;48.728;8.968;2022-08-21T08:43:03;24.90;99.90
6822;DHT22;3449;48.728;8.968;2022-08-21T08:45:35;24.60;99.90
6822;DHT22;3449;48.728;8.968;2022-08-21T08:48:09;24.00;99.90
6822;DHT22;3449;48.728;8.968;2022-08-21T08:50:41;23.80;99.90
6822;DHT22;3449;48.728;8.968;2022-08-21T08:53:14;24.00;99.90
6822;DHT22;3449;48.728;8.968;2022-08-21T08:55:44;24.40;99.90
6822;DHT22;3449;48.728;8.968;2022-08-21T08:58:15;25.00;99.90
6822;DHT22;3449;48.728;8.968;2022-08-21T09:00:47;25.40;99.90
6822;DHT22;3449;48.728;8.968;2022-08-21T09:03:16;25.20;99.90
6822;DHT22;3449;48.728;8.968;2022-08-21T09:05:46;25.00;99.90
6822;DHT22;3449;48.728;8.968;2022-08-21T09:08:30;24.20;99.90
6822;DHT22;3449;48.728;8.968;2022-08-21T09:11:03;24.20;99.90
6822;DHT22;3449;48.728;8.968;2022-08-21T09:13:39;24.50;99.90
6822;DHT22;3449;48.728;8.968;2022-08-21T09:16:13;24.50;99.90
6822;DHT22;3449;48.728;8.968;2022-08-21T09:18:56;25.20;99.90
6822;DHT22;3449;48.728;8.968;2022-08-21T09:21:30;25.60;99.90
6822;DHT22;3449;48.728;8.968;2022-08-21T09:24:22;25.80;99.90
6822;DHT22;3449;48.728;8.968;2022-08-21T09:26:59;25.50;99.90
6822;DHT22;3449;48.728;8.968;2022-08-21T09:29:31;25.90;99.90
6822;DHT22;3449;48.728;8.968;2022-08-21T09:32:02;26.10;99.90
6822;DHT22;3449;48.728;8.968;2022-08-21T09:34:31;25.80;99.90
6822;DHT22;3449;48.728;8.968;2022-08-21T09:36:58;25.90;99.90
6822;DHT22;3449;48.728;8.968;2022-08-21T09:39:28;26.00;99.90
6822;DHT22;3449;48.728;8.968;2022-08-21T09:41:57;26.30;99.90
6822;DHT22;3449;48.728;8.968;2022-08-21T09:44:26;26.70;99.90
6822;DHT22;3449;48.728;8.968;2022-08-21T09:46:54;26.80;99.90
6822;DHT22;3449;48.728;8.968;2022-08-21T09:49:30;26.60;99.90
6822;DHT22;3449;48.728;8.968;2022-08-21T09:51:57;26.90;99.90
6822;DHT22;3449;48.728;8.968;2022-08-21T09:54:29;26.70;99.90
6822;DHT22;3449;48.728;8.968;2022-08-21T09:56:59;27.00;99.90
6822;DHT22;3449;48.728;8.968;2022-08-21T09:59:45;26.40;99.90
6822;DHT22;3449;48.728;8.968;2022-08-21T10:02:31;27.00;99.90
6822;DHT22;3449;48.728;8.968;2022-08-21T10:05:02;27.30;99.90
6822;DHT22;3449;48.728;8.968;2022-08-21T10:07:31;27.70;99.90
6822;DHT22;3449;48.728;8.968;2022-08-21T10:10:03;27.50;99.90
6822;DHT22;3449;48.728;8.968;2022-08-21T10:12:37;27.80;99.90
6822;DHT22;3449;48.728;8.968;2022-08-21T10:15:13;27.60;99.90
6822;DHT22;3449;48.728;8.968;2022-08-21T10:17:49;27.90;99.90
6822;DHT22;3449;48.728;8.968;2022-08-21T10:20:23;28.30;99.90
6822;DHT22;3449;48.728;8.968;2022-08-21T10:23:12;28.70;99.90
6822;DHT22;3449;48.728;8.968;2022-08-21T10:25:49;28.80;99.90
6822;DHT22;3449;48.728;8.968;2022-08-21T10:28:25;28.60;99.90
6822;DHT22;3449;48.728;8.968;2022-08-21T10:31:00;28.20;99.90
6822;DHT22;3449;48.728;8.968;2022-08-21T10:33:37;28.30;99.90
6822;DHT22;3449;48.728;8.968;2022-08-21T10:36:13;27.90;99.90
6822;DHT22;3449;48.728;8.968;2022-08-21T10:38:58;27.80;99.90
6822;DHT22;3449;48.728;8.968;2022-08-21T10:41:43;27.70;99.90
6822;DHT22;3449;48.728;8.968;2022-08-21T10:44:27;28.20;99.90
6822;DHT22;3449;48.728;8.968;2022-08-21T10:47:00;28.20;99.90
6822;DHT22;3449;48.728;8.968;2022-08-21T10:49:38;28.30;99.90
6822;DHT22;3449;48.728;8.968;2022-08-21T10:52:28;28.40;99.90
6822;DHT22;3449;48.728;8.968;2022-08-21T10:55:04;27.90;99.90
6822;DHT22;3449;48.728;8.968;2022-08-21T10:57:38;27.90;99.90
6822;DHT22;3449;48.728;8.968;2022-08-21T11:00:09;28.30;99.90
6822;DHT22;3449;48.728;8.968;2022-08-21T11:02:50;28.70;99.90
6822;DHT22;3449;48.728;8.968;2022-08-21T11:05:24;29.10;99.90
6822;DHT22;3449;48.728;8.968;2022-08-21T11:07:57;28.90;99.90
6822;DHT22;3449;48.728;8.968;2022-08-21T11:10:31;28.60;99.90
6822;DHT22;3449;48.728;8.968;2022-08-21T11:13:03;28.80;99.90
6822;DHT22;3449;48.728;8.968;2022-08-21T11:15:38;29.10;99.90
6822;DHT22;3449;48.728;8.968;2022-08-21T11:18:17;29.40;99.90
6822;DHT22;3449;48.728;8.968;2022-08-21T11:20:51;29.40;99.90
6822;DHT22;3449;48.728;8.968;2022-08-21T11:23:26;29.40;99.90
6822;DHT22;3449;48.728;8.968;2022-08-21T11:26:00;29.30;99.90
6822;DHT22;3449;48.728;8.968;2022-08-21T11:28:33;29.00;99.90
6822;DHT22;3449;48.728;8.968;2022-08-21T11:31:09;28.90;99.90
6822;DHT22;3449;48.728;8.968;2022-08-21T11:33:48;29.60;99.90
6822;DHT22;3449;48.728;8.968;2022-08-21T11:36:25;29.60;99.90
6822;DHT22;3449;48.728;8.968;2022-08-21T11:39:04;30.10;99.90
6822;DHT22;3449;48.728;8.968;2022-08-21T11:41:37;30.90;99.90
6822;DHT22;3449;48.728;8.968;2022-08-21T11:44:11;30.40;99.90
6822;DHT22;3449;48.728;8.968;2022-08-21T11:46:48;29.90;99.90
6822;DHT22;3449;48.728;8.968;2022-08-21T11:49:30;30.10;99.90
6822;DHT22;3449;48.728;8.968;2022-08-21T11:52:08;30.30;99.90
6822;DHT22;3449;48.728;8.968;2022-08-21T11:54:45;30.60;99.90
6822;DHT22;3449;48.728;8.968;2022-08-21T11:57:19;30.60;99.30
6822;DHT22;3449;48.728;8.968;2022-08-21T11:59:51;29.80;99.20
6822;DHT22;3449;48.728;8.968;2022-08-21T12:02:21;29.90;99.90
6822;DHT22;3449;48.728;8.968;2022-08-21T12:04:52;30.30;99.90
6822;DHT22;3449;48.728;8.968;2022-08-21T12:07:31;30.80;98.40
6822;DHT22;3449;48.728;8.968;2022-08-21T12:10:04;30.80;98.30
6822;DHT22;3449;48.728;8.968;2022-08-21T12:12:33;30.00;98.30
6822;DHT22;3449;48.728;8.968;2022-08-21T12:15:23;30.00;98.50
6822;DHT22;3449;48.728;8.968;2022-08-21T12:17:56;30.30;99.20
6822;DHT22;3449;48.728;8.968;2022-08-21T12:20:38;30.20;98.90
6822;DHT22;3449;48.728;8.968;2022-08-21T12:23:17;29.80;99.70
6822;DHT22;3449;48.728;8.968;2022-08-21T12:25:47;30.70;99.60
6822;DHT22;3449;48.728;8.968;2022-08-21T12:28:26;30.30;98.20
6822;DHT22;3449;48.728;8.968;2022-08-21T12:30:53;30.50;98.50
6822;DHT22;3449;48.728;8.968;2022-08-21T12:33:26;30.30;98.00
6822;DHT22;3449;48.728;8.968;2022-08-21T12:36:04;30.50;96.60
6822;DHT22;3449;48.728;8.968;2022-08-21T12:38:42;29.80;97.10
6822;DHT22;3449;48.728;8.968;2022-08-21T12:41:17;29.90;97.30
6822;DHT22;3449;48.728;8.968;2022-08-21T12:43:48;30.00;97.90
6822;DHT22;3449;48.728;8.968;2022-08-21T12:46:20;29.70;97.50
6822;DHT22;3449;48.728;8.968;2022-08-21T12:48:52;30.00;97.50
6822;DHT22;3449;48.728;8.968;2022-08-21T12:51:24;29.70;97.90
6822;DHT22;3449;48.728;8.968;2022-08-21T12:53:54;29.80;98.20
6822;DHT22;3449;48.728;8.968;2022-08-21T12:56:25;29.40;99.70
6822;DHT22;3449;48.728;8.968;2022-08-21T12:58:55;29.70;99.50
6822;DHT22;3449;48.728;8.968;2022-08-21T13:01:30;29.80;99.90
6822;DHT22;3449;48.728;8.968;2022-08-21T13:04:03;29.70;99.90
6822;DHT22;3449;48.728;8.968;2022-08-21T13:06:36;29.70;99.70
6822;DHT22;3449;48.728;8.968;2022-08-21T13:09:06;29.00;99.20
6822;DHT22;3449;48.728;8.968;2022-08-21T13:11:35;29.20;98.40
6822;DHT22;3449;48.728;8.968;2022-08-21T13:14:03;29.40;98.10
6822;DHT22;3449;48.728;8.968;2022-08-21T13:16:31;28.90;99.10
6822;DHT22;3449;48.728;8.968;2022-08-21T13:19:01;28.70;99.90
6822;DHT22;3449;48.728;8.968;2022-08-21T13:21:31;28.10;99.90
6822;DHT22;3449;48.728;8.968;2022-08-21T13:24:12;27.90;99.90
6822;DHT22;3449;48.728;8.968;2022-08-21T13:26:41;27.80;99.90
6822;DHT22;3449;48.728;8.968;2022-08-21T13:29:11;27.80;99.90
6822;DHT22;3449;48.728;8.968;2022-08-21T13:31:39;27.50;99.90
6822;DHT22;3449;48.728;8.968;2022-08-21T13:34:09;27.50;99.90
6822;DHT22;3449;48.728;8.968;2022-08-21T13:36:40;27.40;99.90
6822;DHT22;3449;48.728;8.968;2022-08-21T13:39:09;27.10;99.90
6822;DHT22;3449;48.728;8.968;2022-08-21T13:41:40;26.90;99.90
6822;DHT22;3449;48.728;8.968;2022-08-21T13:44:17;26.80;99.90
6822;DHT22;3449;48.728;8.968;2022-08-21T13:46:44;26.80;99.90
6822;DHT22;3449;48.728;8.968;2022-08-21T13:49:14;26.80;99.90
6822;DHT22;3449;48.728;8.968;2022-08-21T13:51:43;26.60;99.90
6822;DHT22;3449;48.728;8.968;2022-08-21T13:54:16;26.50;99.90
6822;DHT22;3449;48.728;8.968;2022-08-21T13:56:47;26.70;99.90
6822;DHT22;3449;48.728;8.968;2022-08-21T13:59:26;26.90;99.90
6822;DHT22;3449;48.728;8.968;2022-08-21T14:01:55;26.90;99.90
6822;DHT22;3449;48.728;8.968;2022-08-21T14:04:29;26.90;99.90
6822;DHT22;3449;48.728;8.968;2022-08-21T14:06:57;26.80;99.90
6822;DHT22;3449;48.728;8.968;2022-08-21T14:09:29;26.70;99.90
6822;DHT22;3449;48.728;8.968;2022-08-21T14:11:57;26.60;99.90
6822;DHT22;3449;48.728;8.968;2022-08-21T14:14:30;26.40;99.90
6822;DHT22;3449;48.728;8.968;2022-08-21T14:17:00;26.20;99.90
6822;DHT22;3449;48.728;8.968;2022-08-21T14:19:37;26.00;99.90
6822;DHT22;3449;48.728;8.968;2022-08-21T14:22:29;26.10;99.90
6822;DHT22;3449;48.728;8.968;2022-08-21T14:25:02;26.90;99.90
6822;DHT22;3449;48.728;8.968;2022-08-21T14:27:32;28.00;99.90
6822;DHT22;3449;48.728;8.968;2022-08-21T14:30:11;28.70;99.80
6822;DHT22;3449;48.728;8.968;2022-08-21T14:32:40;28.40;99.90
6822;DHT22;3449;48.728;8.968;2022-08-21T14:35:08;29.40;99.80
6822;DHT22;3449;48.728;8.968;2022-08-21T14:37:36;29.90;98.90
6822;DHT22;3449;48.728;8.968;2022-08-21T14:40:04;29.90;98.20
6822;DHT22;3449;48.728;8.968;2022-08-21T14:42:31;30.40;98.10
6822;DHT22;3449;48.728;8.968;2022-08-21T14:45:13;30.10;97.60
6822;DHT22;3449;48.728;8.968;2022-08-21T14:47:40;29.80;97.00
6822;DHT22;3449;48.728;8.968;2022-08-21T14:50:08;30.30;98.00
6822;DHT22;3449;48.728;8.968;2022-08-21T14:52:35;31.00;96.50
6822;DHT22;3449;48.728;8.968;2022-08-21T14:55:03;31.00;95.90
6822;DHT22;3449;48.728;8.968;2022-08-21T14:57:31;31.10;95.50
6822;DHT22;3449;48.728;8.968;2022-08-21T14:59:58;31.40;95.70
6822;DHT22;3449;48.728;8.968;2022-08-21T15:02:27;31.70;95.90
6822;DHT22;3449;48.728;8.968;2022-08-21T15:04:54;31.10;95.50
6822;DHT22;3449;48.728;8.968;2022-08-21T15:07:20;31.50;95.50
6822;DHT22;3449;48.728;8.968;2022-08-21T15:09:48;32.10;95.30
6822;DHT22;3449;48.728;8.968;2022-08-21T15:12:15;32.20;95.40
6822;DHT22;3449;48.728;8.968;2022-08-21T15:14:42;32.40;94.30
6822;DHT22;3449;48.728;8.968;2022-08-21T15:17:10;32.60;93.30
6822;DHT22;3449;48.728;8.968;2022-08-21T15:19:38;33.10;93.90
6822;DHT22;3449;48.728;8.968;2022-08-21T15:22:05;32.90;92.60
6822;DHT22;3449;48.728;8.968;2022-08-21T15:24:32;32.40;92.90
6822;DHT22;3449;48.728;8.968;2022-08-21T15:27:01;31.50;93.70
6822;DHT22;3449;48.728;8.968;2022-08-21T15:29:29;30.90;94.90
6822;DHT22;3449;48.728;8.968;2022-08-21T15:31:58;30.20;94.60
6822;DHT22;3449;48.728;8.968;2022-08-21T15:34:27;29.80;95.10
6822;DHT22;3449;48.728;8.968;2022-08-21T15:36:57;30.00;95.70
6822;DHT22;3449;48.728;8.968;2022-08-21T15:39:25;30.50;95.40
6822;DHT22;3449;48.728;8.968;2022-08-21T15:41:52;30.80;95.00
6822;DHT22;3449;48.728;8.968;2022-08-21T15:44:20;31.10;94.30
6822;DHT22;3449;48.728;8.968;2022-08-21T15:46:47;31.30;94.10
6822;DHT22;3449;48.728;8.968;2022-08-21T15:49:14;31.50;93.90
6822;DHT22;3449;48.728;8.968;2022-08-21T15:51:41;31.90;94.90
6822;DHT22;3449;48.728;8.968;2022-08-21T15:54:09;32.40;93.80
6822;DHT22;3449;48.728;8.968;2022-08-21T15:56:39;32.20;93.30
6822;DHT22;3449;48.728;8.968;2022-08-21T15:59:14;31.90;93.40
6822;DHT22;3449;48.728;8.968;2022-08-21T16:01:42;30.90;93.50
6822;DHT22;3449;48.728;8.968;2022-08-21T16:04:09;30.70;93.90
6822;DHT22;3449;48.728;8.968;2022-08-21T16:06:36;30.50;94.40
6822;DHT22;3449;48.728;8.968;2022-08-21T16:09:03;30.30;94.20
6822;DHT22;3449;48.728;8.968;2022-08-21T16:11:32;30.40;94.50
6822;DHT22;3449;48.728;8.968;2022-08-21T16:13:59;30.70;94.10
6822;DHT22;3449;48.728;8.968;2022-08-21T16:16:35;31.00;93.70
6822;DHT22;3449;48.728;8.968;2022-08-21T16:19:03;31.10;93.30